sensor_id;sensor_type;location;lat;lon;timestamp;P1;durP1;ratioP1;P2;durP2;ratioP2
27313;SDS011;14800;48.174;9.798;2023-04-24T00:01:23;1.27;;;1.13;;
27313;SDS011;14800;48.174;9.798;2023-04-24T00:03:49;1.92;;;1.08;;
27313;SDS011;14800;48.174;9.798;2023-04-24T00:06:15;1.25;;;1.10;;
27313;SDS011;14800;48.174;9.798;2023-04-24T00:08:41;1.58;;;0.98;;
27313;SDS011;14800;48.174;9.798;2023-04-24T00:11:07;1.30;;;0.90;;
27313;SDS011;14800;48.174;9.798;2023-04-24T00:13:34;1.05;;;0.98;;
27313;SDS011;14800;48.174;9.798;2023-04-24T00:16:00;1.98;;;1.00;;
27313;SDS011;14800;48.174;9.798;2023-04-24T00:18:25;0.98;;;0.90;;
27313;SDS011;14800;48.174;9.798;2023-04-24T00:20:51;1.20;;;1.10;;
27313;SDS011;14800;48.174;9.798;2023-04-24T00:23:17;1.17;;;1.00;;
27313;SDS011;14800;48.174;9.798;2023-04-24T00:25:42;2.03;;;1.08;;
27313;SDS011;14800;48.174;9.798;2023-04-24T00:28:08;1.42;;;1.00;;
27313;SDS011;14800;48.174;9.798;2023-04-24T00:30:34;1.30;;;0.95;;
27313;SDS011;14800;48.174;9.798;2023-04-24T00:32:59;1.42;;;1.10;;
27313;SDS011;14800;48.174;9.798;2023-04-24T00:35:25;0.82;;;0.82;;
27313;SDS011;14800;48.174;9.798;2023-04-24T00:37:50;0.80;;;0.80;;
27313;SDS011;14800;48.174;9.798;2023-04-24T00:40:16;1.48;;;1.10;;
27313;SDS011;14800;48.174;9.798;2023-04-24T00:42:42;2.10;;;0.95;;
27313;SDS011;14800;48.174;9.798;2023-04-24T00:45:08;1.10;;;0.70;;
27313;SDS011;14800;48.174;9.798;2023-04-24T00:47:34;1.67;;;0.80;;
27313;SDS011;14800;48.174;9.798;2023-04-24T00:50:01;2.38;;;0.90;;
27313;SDS011;14800;48.174;9.798;2023-04-24T00:52:30;1.00;;;0.90;;
27313;SDS011;14800;48.174;9.798;2023-04-24T00:54:57;1.08;;;0.88;;
27313;SDS011;14800;48.174;9.798;2023-04-24T00:57:23;0.70;;;0.70;;
27313;SDS011;14800;48.174;9.798;2023-04-24T00:59:50;0.95;;;0.70;;
27313;SDS011;14800;48.174;9.798;2023-04-24T01:02:16;2.70;;;0.50;;
27313;SDS011;14800;48.174;9.798;2023-04-24T01:04:42;0.60;;;0.60;;
27313;SDS011;14800;48.174;9.798;2023-04-24T01:07:08;1.88;;;0.55;;
27313;SDS011;14800;48.174;9.798;2023-04-24T01:09:37;1.00;;;0.65;;
27313;SDS011;14800;48.174;9.798;2023-04-24T01:12:06;1.10;;;0.60;;
27313;SDS011;14800;48.174;9.798;2023-04-24T01:14:32;1.83;;;0.90;;
27313;SDS011;14800;48.174;9.798;2023-04-24T01:16:58;1.00;;;0.60;;
27313;SDS011;14800;48.174;9.798;2023-04-24T01:19:24;1.08;;;0.50;;
27313;SDS011;14800;48.174;9.798;2023-04-24T01:21:50;3.65;;;0.88;;
27313;SDS011;14800;48.174;9.798;2023-04-24T01:24:18;0.85;;;0.75;;
27313;SDS011;14800;48.174;9.798;2023-04-24T01:26:44;1.05;;;0.80;;
27313;SDS011;14800;48.174;9.798;2023-04-24T01:29:11;2.55;;;0.80;;
27313;SDS011;14800;48.174;9.798;2023-04-24T01:31:37;1.25;;;0.80;;
27313;SDS011;14800;48.174;9.798;2023-04-24T01:34:03;0.98;;;0.75;;
27313;SDS011;14800;48.174;9.798;2023-04-24T01:36:29;1.05;;;0.90;;
27313;SDS011;14800;48.174;9.798;2023-04-24T01:38:57;0.88;;;0.82;;
27313;SDS011;14800;48.174;9.798;2023-04-24T01:41:23;1.00;;;0.70;;
27313;SDS011;14800;48.174;9.798;2023-04-24T01:43:49;1.25;;;0.70;;
27313;SDS011;14800;48.174;9.798;2023-04-24T01:46:16;1.42;;;0.68;;
27313;SDS011;14800;48.174;9.798;2023-04-24T01:48:41;1.60;;;0.80;;
27313;SDS011;14800;48.174;9.798;2023-04-24T01:51:07;0.85;;;0.82;;
27313;SDS011;14800;48.174;9.798;2023-04-24T01:53:33;0.95;;;0.90;;
27313;SDS011;14800;48.174;9.798;2023-04-24T01:55:59;1.58;;;0.80;;
27313;SDS011;14800;48.174;9.798;2023-04-24T01:58:26;0.93;;;0.80;;
27313;SDS011;14800;48.174;9.798;2023-04-24T02:00:52;1.35;;;0.73;;
27313;SDS011;14800;48.174;9.798;2023-04-24T02:03:17;1.42;;;1.10;;
27313;SDS011;14800;48.174;9.798;2023-04-24T02:05:43;0.80;;;0.80;;
27313;SDS011;14800;48.174;9.798;2023-04-24T02:08:10;1.15;;;1.05;;
27313;SDS011;14800;48.174;9.798;2023-04-24T02:10:35;1.23;;;1.10;;
27313;SDS011;14800;48.174;9.798;2023-04-24T02:13:01;1.25;;;1.00;;
27313;SDS011;14800;48.174;9.798;2023-04-24T02:15:27;1.30;;;1.02;;
27313;SDS011;14800;48.174;9.798;2023-04-24T02:17:53;1.48;;;1.15;;
27313;SDS011;14800;48.174;9.798;2023-04-24T02:20:18;1.35;;;1.23;;
27313;SDS011;14800;48.174;9.798;2023-04-24T02:22:44;1.23;;;0.93;;
27313;SDS011;14800;48.174;9.798;2023-04-24T02:25:10;2.30;;;1.00;;
27313;SDS011;14800;48.174;9.798;2023-04-24T02:27:35;2.25;;;0.90;;
27313;SDS011;14800;48.174;9.798;2023-04-24T02:30:01;1.02;;;1.00;;
27313;SDS011;14800;48.174;9.798;2023-04-24T02:32:27;1.55;;;1.23;;
27313;SDS011;14800;48.174;9.798;2023-04-24T02:34:53;3.80;;;1.10;;
27313;SDS011;14800;48.174;9.798;2023-04-24T02:37:19;1.20;;;1.10;;
27313;SDS011;14800;48.174;9.798;2023-04-24T02:39:44;1.35;;;1.25;;
27313;SDS011;14800;48.174;9.798;2023-04-24T02:42:10;1.27;;;1.10;;
27313;SDS011;14800;48.174;9.798;2023-04-24T02:44:35;1.52;;;1.20;;
27313;SDS011;14800;48.174;9.798;2023-04-24T02:47:01;2.58;;;1.40;;
27313;SDS011;14800;48.174;9.798;2023-04-24T02:49:27;2.15;;;1.30;;
27313;SDS011;14800;48.174;9.798;2023-04-24T02:51:52;1.00;;;1.00;;
27313;SDS011;14800;48.174;9.798;2023-04-24T02:54:18;1.00;;;1.00;;
27313;SDS011;14800;48.174;9.798;2023-04-24T02:56:43;1.30;;;1.20;;
27313;SDS011;14800;48.174;9.798;2023-04-24T02:59:09;1.52;;;1.20;;
27313;SDS011;14800;48.174;9.798;2023-04-24T03:01:35;2.58;;;1.55;;
27313;SDS011;14800;48.174;9.798;2023-04-24T03:04:01;2.15;;;1.40;;
27313;SDS011;14800;48.174;9.798;2023-04-24T03:06:26;2.55;;;1.48;;
27313;SDS011;14800;48.174;9.798;2023-04-24T03:08:53;2.22;;;1.40;;
27313;SDS011;14800;48.174;9.798;2023-04-24T03:11:19;1.30;;;1.20;;
27313;SDS011;14800;48.174;9.798;2023-04-24T03:13:45;2.22;;;1.20;;
27313;SDS011;14800;48.174;9.798;2023-04-24T03:16:10;1.15;;;1.10;;
27313;SDS011;14800;48.174;9.798;2023-04-24T03:18:36;1.20;;;1.10;;
27313;SDS011;14800;48.174;9.798;2023-04-24T03:21:01;1.13;;;1.05;;
27313;SDS011;14800;48.174;9.798;2023-04-24T03:23:28;2.38;;;1.20;;
27313;SDS011;14800;48.174;9.798;2023-04-24T03:25:54;2.97;;;1.02;;
27313;SDS011;14800;48.174;9.798;2023-04-24T03:28:20;1.38;;;1.10;;
27313;SDS011;14800;48.174;9.798;2023-04-24T03:30:45;0.93;;;0.93;;
27313;SDS011;14800;48.174;9.798;2023-04-24T03:33:11;1.88;;;1.27;;
27313;SDS011;14800;48.174;9.798;2023-04-24T03:35:36;1.40;;;1.13;;
27313;SDS011;14800;48.174;9.798;2023-04-24T03:38:02;2.00;;;1.00;;
27313;SDS011;14800;48.174;9.798;2023-04-24T03:40:29;1.05;;;0.98;;
27313;SDS011;14800;48.174;9.798;2023-04-24T03:42:55;0.88;;;0.88;;
27313;SDS011;14800;48.174;9.798;2023-04-24T03:45:20;1.38;;;1.10;;
27313;SDS011;14800;48.174;9.798;2023-04-24T03:47:46;0.80;;;0.80;;
27313;SDS011;14800;48.174;9.798;2023-04-24T03:50:12;1.85;;;0.90;;
27313;SDS011;14800;48.174;9.798;2023-04-24T03:52:37;0.93;;;0.90;;
27313;SDS011;14800;48.174;9.798;2023-04-24T03:55:04;1.58;;;0.80;;
27313;SDS011;14800;48.174;9.798;2023-04-24T03:57:31;0.85;;;0.80;;
27313;SDS011;14800;48.174;9.798;2023-04-24T03:59:56;0.82;;;0.70;;
27313;SDS011;14800;48.174;9.798;2023-04-24T04:02:22;0.43;;;0.43;;
27313;SDS011;14800;48.174;9.798;2023-04-24T04:04:47;0.63;;;0.60;;
27313;SDS011;14800;48.174;9.798;2023-04-24T04:07:13;0.80;;;0.60;;
27313;SDS011;14800;48.174;9.798;2023-04-24T04:09:38;2.60;;;0.70;;
27313;SDS011;14800;48.174;9.798;2023-04-24T04:12:04;0.55;;;0.50;;
27313;SDS011;14800;48.174;9.798;2023-04-24T04:14:30;1.55;;;0.45;;
27313;SDS011;14800;48.174;9.798;2023-04-24T04:16:55;1.65;;;0.50;;
27313;SDS011;14800;48.174;9.798;2023-04-24T04:19:21;3.28;;;1.77;;
27313;SDS011;14800;48.174;9.798;2023-04-24T04:21:47;3.92;;;1.85;;
27313;SDS011;14800;48.174;9.798;2023-04-24T04:24:17;8.15;;;6.32;;
27313;SDS011;14800;48.174;9.798;2023-04-24T04:26:43;5.38;;;3.55;;
27313;SDS011;14800;48.174;9.798;2023-04-24T04:29:11;0.93;;;0.77;;
27313;SDS011;14800;48.174;9.798;2023-04-24T04:31:37;1.85;;;0.60;;
27313;SDS011;14800;48.174;9.798;2023-04-24T04:34:03;0.50;;;0.43;;
27313;SDS011;14800;48.174;9.798;2023-04-24T04:36:29;0.70;;;0.50;;
27313;SDS011;14800;48.174;9.798;2023-04-24T04:38:54;1.27;;;0.65;;
27313;SDS011;14800;48.174;9.798;2023-04-24T04:41:21;2.25;;;0.50;;
27313;SDS011;14800;48.174;9.798;2023-04-24T04:43:47;1.02;;;0.43;;
27313;SDS011;14800;48.174;9.798;2023-04-24T04:46:13;2.25;;;0.40;;
27313;SDS011;14800;48.174;9.798;2023-04-24T04:48:38;0.60;;;0.60;;
27313;SDS011;14800;48.174;9.798;2023-04-24T04:51:04;3.42;;;1.83;;
27313;SDS011;14800;48.174;9.798;2023-04-24T04:53:30;0.70;;;0.40;;
27313;SDS011;14800;48.174;9.798;2023-04-24T04:55:56;0.82;;;0.70;;
27313;SDS011;14800;48.174;9.798;2023-04-24T04:58:21;0.45;;;0.40;;
27313;SDS011;14800;48.174;9.798;2023-04-24T05:00:47;0.85;;;0.38;;
27313;SDS011;14800;48.174;9.798;2023-04-24T05:03:13;0.50;;;0.38;;
27313;SDS011;14800;48.174;9.798;2023-04-24T05:05:39;0.60;;;0.40;;
27313;SDS011;14800;48.174;9.798;2023-04-24T05:08:06;0.40;;;0.40;;
27313;SDS011;14800;48.174;9.798;2023-04-24T05:10:32;0.38;;;0.22;;
27313;SDS011;14800;48.174;9.798;2023-04-24T05:12:58;1.00;;;0.95;;
27313;SDS011;14800;48.174;9.798;2023-04-24T05:15:23;1.42;;;1.23;;
27313;SDS011;14800;48.174;9.798;2023-04-24T05:17:49;0.55;;;0.40;;
27313;SDS011;14800;48.174;9.798;2023-04-24T05:20:15;1.17;;;0.50;;
27313;SDS011;14800;48.174;9.798;2023-04-24T05:22:40;1.92;;;0.80;;
27313;SDS011;14800;48.174;9.798;2023-04-24T05:25:06;1.88;;;0.85;;
27313;SDS011;14800;48.174;9.798;2023-04-24T05:27:32;1.88;;;0.43;;
27313;SDS011;14800;48.174;9.798;2023-04-24T05:29:58;0.30;;;0.30;;
27313;SDS011;14800;48.174;9.798;2023-04-24T05:32:24;0.57;;;0.40;;
27313;SDS011;14800;48.174;9.798;2023-04-24T05:34:49;0.30;;;0.20;;
27313;SDS011;14800;48.174;9.798;2023-04-24T05:37:15;0.90;;;0.50;;
27313;SDS011;14800;48.174;9.798;2023-04-24T05:39:40;0.50;;;0.30;;
27313;SDS011;14800;48.174;9.798;2023-04-24T05:42:06;1.13;;;0.20;;
27313;SDS011;14800;48.174;9.798;2023-04-24T05:44:32;0.40;;;0.32;;
27313;SDS011;14800;48.174;9.798;2023-04-24T05:46:57;4.32;;;1.40;;
27313;SDS011;14800;48.174;9.798;2023-04-24T05:49:23;0.60;;;0.52;;
27313;SDS011;14800;48.174;9.798;2023-04-24T05:51:49;0.68;;;0.50;;
27313;SDS011;14800;48.174;9.798;2023-04-24T05:54:14;0.30;;;0.30;;
27313;SDS011;14800;48.174;9.798;2023-04-24T05:56:40;0.43;;;0.30;;
27313;SDS011;14800;48.174;9.798;2023-04-24T05:59:05;0.40;;;0.22;;
27313;SDS011;14800;48.174;9.798;2023-04-24T06:01:32;0.60;;;0.50;;
27313;SDS011;14800;48.174;9.798;2023-04-24T06:03:58;4.40;;;0.65;;
27313;SDS011;14800;48.174;9.798;2023-04-24T06:06:23;1.63;;;0.32;;
27313;SDS011;14800;48.174;9.798;2023-04-24T06:08:49;4.07;;;0.82;;
27313;SDS011;14800;48.174;9.798;2023-04-24T06:11:15;1.75;;;1.00;;
27313;SDS011;14800;48.174;9.798;2023-04-24T06:13:40;2.15;;;1.00;;
27313;SDS011;14800;48.174;9.798;2023-04-24T06:16:06;1.73;;;1.10;;
27313;SDS011;14800;48.174;9.798;2023-04-24T06:18:32;2.65;;;0.93;;
27313;SDS011;14800;48.174;9.798;2023-04-24T06:20:57;1.60;;;0.90;;
27313;SDS011;14800;48.174;9.798;2023-04-24T06:23:23;1.48;;;0.90;;
27313;SDS011;14800;48.174;9.798;2023-04-24T06:25:48;1.65;;;1.10;;
27313;SDS011;14800;48.174;9.798;2023-04-24T06:28:14;1.10;;;1.00;;
27313;SDS011;14800;48.174;9.798;2023-04-24T06:30:40;1.20;;;1.10;;
27313;SDS011;14800;48.174;9.798;2023-04-24T06:33:06;2.83;;;1.05;;
27313;SDS011;14800;48.174;9.798;2023-04-24T06:35:31;1.40;;;1.30;;
27313;SDS011;14800;48.174;9.798;2023-04-24T06:37:57;1.20;;;1.10;;
27313;SDS011;14800;48.174;9.798;2023-04-24T06:40:22;3.05;;;1.42;;
27313;SDS011;14800;48.174;9.798;2023-04-24T06:42:48;2.72;;;1.42;;
27313;SDS011;14800;48.174;9.798;2023-04-24T06:45:14;2.42;;;1.05;;
27313;SDS011;14800;48.174;9.798;2023-04-24T06:47:39;1.20;;;1.10;;
27313;SDS011;14800;48.174;9.798;2023-04-24T06:50:05;2.90;;;1.65;;
27313;SDS011;14800;48.174;9.798;2023-04-24T06:52:31;2.75;;;2.03;;
27313;SDS011;14800;48.174;9.798;2023-04-24T06:55:01;2.22;;;1.90;;
27313;SDS011;14800;48.174;9.798;2023-04-24T06:57:28;3.10;;;1.88;;
27313;SDS011;14800;48.174;9.798;2023-04-24T06:59:54;1.33;;;1.25;;
27313;SDS011;14800;48.174;9.798;2023-04-24T07:02:19;1.60;;;1.38;;
27313;SDS011;14800;48.174;9.798;2023-04-24T07:04:45;1.48;;;1.08;;
27313;SDS011;14800;48.174;9.798;2023-04-24T07:07:12;1.55;;;1.27;;
27313;SDS011;14800;48.174;9.798;2023-04-24T07:09:39;1.88;;;1.13;;
27313;SDS011;14800;48.174;9.798;2023-04-24T07:12:07;2.30;;;1.40;;
27313;SDS011;14800;48.174;9.798;2023-04-24T07:14:36;1.27;;;1.13;;
27313;SDS011;14800;48.174;9.798;2023-04-24T07:17:03;1.88;;;1.45;;
27313;SDS011;14800;48.174;9.798;2023-04-24T07:19:29;3.17;;;1.40;;
27313;SDS011;14800;48.174;9.798;2023-04-24T07:21:54;2.05;;;1.60;;
27313;SDS011;14800;48.174;9.798;2023-04-24T07:24:20;1.70;;;1.50;;
27313;SDS011;14800;48.174;9.798;2023-04-24T07:26:46;2.17;;;1.80;;
27313;SDS011;14800;48.174;9.798;2023-04-24T07:29:11;3.45;;;1.83;;
27313;SDS011;14800;48.174;9.798;2023-04-24T07:31:37;2.45;;;1.63;;
27313;SDS011;14800;48.174;9.798;2023-04-24T07:34:03;1.42;;;1.33;;
27313;SDS011;14800;48.174;9.798;2023-04-24T07:36:29;2.63;;;1.50;;
27313;SDS011;14800;48.174;9.798;2023-04-24T07:38:55;3.03;;;1.45;;
27313;SDS011;14800;48.174;9.798;2023-04-24T07:41:21;1.48;;;1.38;;
27313;SDS011;14800;48.174;9.798;2023-04-24T07:43:47;2.70;;;1.52;;
27313;SDS011;14800;48.174;9.798;2023-04-24T07:46:13;1.90;;;1.40;;
27313;SDS011;14800;48.174;9.798;2023-04-24T07:48:38;1.80;;;1.40;;
27313;SDS011;14800;48.174;9.798;2023-04-24T07:51:04;2.95;;;1.52;;
27313;SDS011;14800;48.174;9.798;2023-04-24T07:53:30;1.42;;;1.33;;
27313;SDS011;14800;48.174;9.798;2023-04-24T07:55:55;1.90;;;1.30;;
27313;SDS011;14800;48.174;9.798;2023-04-24T07:58:21;1.60;;;1.42;;
27313;SDS011;14800;48.174;9.798;2023-04-24T08:00:47;2.33;;;1.20;;
27313;SDS011;14800;48.174;9.798;2023-04-24T08:03:13;1.65;;;1.05;;
27313;SDS011;14800;48.174;9.798;2023-04-24T08:05:38;1.08;;;0.90;;
27313;SDS011;14800;48.174;9.798;2023-04-24T08:08:04;1.52;;;1.42;;
27313;SDS011;14800;48.174;9.798;2023-04-24T08:10:29;1.20;;;0.90;;
27313;SDS011;14800;48.174;9.798;2023-04-24T08:12:55;1.20;;;1.00;;
27313;SDS011;14800;48.174;9.798;2023-04-24T08:15:21;0.82;;;0.82;;
27313;SDS011;14800;48.174;9.798;2023-04-24T08:17:46;1.00;;;0.70;;
27313;SDS011;14800;48.174;9.798;2023-04-24T08:20:12;1.00;;;0.52;;
27313;SDS011;14800;48.174;9.798;2023-04-24T08:22:41;0.60;;;0.60;;
27313;SDS011;14800;48.174;9.798;2023-04-24T08:25:07;1.23;;;0.90;;
27313;SDS011;14800;48.174;9.798;2023-04-24T08:27:34;0.75;;;0.60;;
27313;SDS011;14800;48.174;9.798;2023-04-24T08:30:01;0.63;;;0.40;;
27313;SDS011;14800;48.174;9.798;2023-04-24T08:32:28;1.13;;;0.60;;
27313;SDS011;14800;48.174;9.798;2023-04-24T08:34:54;0.50;;;0.50;;
27313;SDS011;14800;48.174;9.798;2023-04-24T08:37:23;1.48;;;0.60;;
27313;SDS011;14800;48.174;9.798;2023-04-24T08:39:50;0.73;;;0.40;;
27313;SDS011;14800;48.174;9.798;2023-04-24T08:42:16;0.60;;;0.60;;
27313;SDS011;14800;48.174;9.798;2023-04-24T08:44:43;0.93;;;0.68;;
27313;SDS011;14800;48.174;9.798;2023-04-24T08:47:10;0.93;;;0.50;;
27313;SDS011;14800;48.174;9.798;2023-04-24T08:49:37;1.08;;;0.70;;
27313;SDS011;14800;48.174;9.798;2023-04-24T08:52:04;1.00;;;0.70;;
27313;SDS011;14800;48.174;9.798;2023-04-24T08:54:30;1.52;;;0.65;;
27313;SDS011;14800;48.174;9.798;2023-04-24T08:56:59;1.45;;;0.57;;
27313;SDS011;14800;48.174;9.798;2023-04-24T08:59:31;1.05;;;0.82;;
27313;SDS011;14800;48.174;9.798;2023-04-24T09:01:57;0.90;;;0.57;;
27313;SDS011;14800;48.174;9.798;2023-04-24T09:04:23;1.48;;;0.50;;
27313;SDS011;14800;48.174;9.798;2023-04-24T09:06:56;0.50;;;0.30;;
27313;SDS011;14800;48.174;9.798;2023-04-24T09:09:23;2.10;;;0.40;;
27313;SDS011;14800;48.174;9.798;2023-04-24T09:11:50;0.45;;;0.45;;
27313;SDS011;14800;48.174;9.798;2023-04-24T09:14:18;0.93;;;0.55;;
27313;SDS011;14800;48.174;9.798;2023-04-24T09:16:44;1.95;;;0.40;;
27313;SDS011;14800;48.174;9.798;2023-04-24T09:19:10;1.23;;;0.55;;
27313;SDS011;14800;48.174;9.798;2023-04-24T09:21:36;0.45;;;0.40;;
27313;SDS011;14800;48.174;9.798;2023-04-24T09:24:02;1.73;;;0.45;;
27313;SDS011;14800;48.174;9.798;2023-04-24T09:26:33;1.40;;;0.30;;
27313;SDS011;14800;48.174;9.798;2023-04-24T09:29:00;0.80;;;0.60;;
27313;SDS011;14800;48.174;9.798;2023-04-24T09:31:28;1.65;;;0.65;;
27313;SDS011;14800;48.174;9.798;2023-04-24T09:34:01;0.98;;;0.88;;
27313;SDS011;14800;48.174;9.798;2023-04-24T09:36:34;0.80;;;0.80;;
27313;SDS011;14800;48.174;9.798;2023-04-24T09:39:03;0.85;;;0.70;;
27313;SDS011;14800;48.174;9.798;2023-04-24T09:41:34;0.60;;;0.60;;
27313;SDS011;14800;48.174;9.798;2023-04-24T09:44:13;0.60;;;0.60;;
27313;SDS011;14800;48.174;9.798;2023-04-24T09:46:45;1.05;;;0.90;;
27313;SDS011;14800;48.174;9.798;2023-04-24T09:49:15;1.98;;;0.90;;
27313;SDS011;14800;48.174;9.798;2023-04-24T09:51:41;0.70;;;0.70;;
27313;SDS011;14800;48.174;9.798;2023-04-24T09:54:21;1.55;;;0.80;;
27313;SDS011;14800;48.174;9.798;2023-04-24T09:56:47;1.00;;;0.90;;
27313;SDS011;14800;48.174;9.798;2023-04-24T09:59:18;1.80;;;0.80;;
27313;SDS011;14800;48.174;9.798;2023-04-24T10:01:44;1.02;;;0.90;;
27313;SDS011;14800;48.174;9.798;2023-04-24T10:04:17;1.15;;;1.00;;
27313;SDS011;14800;48.174;9.798;2023-04-24T10:06:47;1.98;;;1.13;;
27313;SDS011;14800;48.174;9.798;2023-04-24T10:09:14;2.92;;;1.20;;
27313;SDS011;14800;48.174;9.798;2023-04-24T10:11:41;1.13;;;0.90;;
27313;SDS011;14800;48.174;9.798;2023-04-24T10:14:11;2.20;;;1.10;;
27313;SDS011;14800;48.174;9.798;2023-04-24T10:16:47;1.00;;;0.90;;
27313;SDS011;14800;48.174;9.798;2023-04-24T10:19:14;1.23;;;0.85;;
27313;SDS011;14800;48.174;9.798;2023-04-24T10:21:41;3.40;;;1.00;;
27313;SDS011;14800;48.174;9.798;2023-04-24T10:24:11;0.88;;;0.80;;
27313;SDS011;14800;48.174;9.798;2023-04-24T10:26:41;2.38;;;0.90;;
27313;SDS011;14800;48.174;9.798;2023-04-24T10:29:08;1.27;;;0.90;;
27313;SDS011;14800;48.174;9.798;2023-04-24T10:31:35;1.40;;;0.95;;
27313;SDS011;14800;48.174;9.798;2023-04-24T10:34:03;2.20;;;1.05;;
27313;SDS011;14800;48.174;9.798;2023-04-24T10:36:30;1.77;;;1.05;;
27313;SDS011;14800;48.174;9.798;2023-04-24T10:38:57;3.78;;;0.90;;
27313;SDS011;14800;48.174;9.798;2023-04-24T10:41:26;2.00;;;1.40;;
27313;SDS011;14800;48.174;9.798;2023-04-24T10:46:29;1.58;;;1.23;;
27313;SDS011;14800;48.174;9.798;2023-04-24T10:48:55;2.47;;;1.20;;
27313;SDS011;14800;48.174;9.798;2023-04-24T10:51:23;1.40;;;1.30;;
27313;SDS011;14800;48.174;9.798;2023-04-24T10:53:49;1.73;;;1.30;;
27313;SDS011;14800;48.174;9.798;2023-04-24T10:56:16;2.00;;;1.20;;
27313;SDS011;14800;48.174;9.798;2023-04-24T10:58:43;1.70;;;0.90;;
27313;SDS011;14800;48.174;9.798;2023-04-24T11:03:55;1.20;;;1.00;;
27313;SDS011;14800;48.174;9.798;2023-04-24T11:06:29;1.90;;;0.90;;
27313;SDS011;14800;48.174;9.798;2023-04-24T11:09:03;1.23;;;1.10;;
27313;SDS011;14800;48.174;9.798;2023-04-24T11:11:34;2.65;;;1.00;;
27313;SDS011;14800;48.174;9.798;2023-04-24T11:14:03;1.10;;;1.00;;
27313;SDS011;14800;48.174;9.798;2023-04-24T11:16:32;3.50;;;0.95;;
27313;SDS011;14800;48.174;9.798;2023-04-24T11:21:33;1.17;;;1.08;;
27313;SDS011;14800;48.174;9.798;2023-04-24T11:27:00;1.02;;;0.93;;
27313;SDS011;14800;48.174;9.798;2023-04-24T11:34:50;0.82;;;0.75;;
27313;SDS011;14800;48.174;9.798;2023-04-24T11:37:17;1.88;;;0.70;;
27313;SDS011;14800;48.174;9.798;2023-04-24T11:39:43;1.02;;;0.70;;
27313;SDS011;14800;48.174;9.798;2023-04-24T11:42:09;1.48;;;0.90;;
27313;SDS011;14800;48.174;9.798;2023-04-24T11:44:35;1.95;;;0.90;;
27313;SDS011;14800;48.174;9.798;2023-04-24T11:47:05;2.65;;;0.70;;
27313;SDS011;14800;48.174;9.798;2023-04-24T11:49:32;2.15;;;0.80;;
27313;SDS011;14800;48.174;9.798;2023-04-24T11:51:57;1.05;;;0.95;;
27313;SDS011;14800;48.174;9.798;2023-04-24T11:54:24;1.48;;;0.95;;
27313;SDS011;14800;48.174;9.798;2023-04-24T11:56:50;1.00;;;0.90;;
27313;SDS011;14800;48.174;9.798;2023-04-24T11:59:16;1.55;;;0.90;;
27313;SDS011;14800;48.174;9.798;2023-04-24T12:01:45;1.70;;;1.20;;
27313;SDS011;14800;48.174;9.798;2023-04-24T12:04:11;1.40;;;1.20;;
27313;SDS011;14800;48.174;9.798;2023-04-24T12:06:37;1.98;;;0.80;;
27313;SDS011;14800;48.174;9.798;2023-04-24T12:09:02;2.97;;;0.95;;
27313;SDS011;14800;48.174;9.798;2023-04-24T12:11:28;1.60;;;1.30;;
27313;SDS011;14800;48.174;9.798;2023-04-24T12:13:54;1.58;;;1.05;;
27313;SDS011;14800;48.174;9.798;2023-04-24T12:16:19;1.33;;;1.20;;
27313;SDS011;14800;48.174;9.798;2023-04-24T12:18:45;2.08;;;1.08;;
27313;SDS011;14800;48.174;9.798;2023-04-24T12:21:14;1.23;;;1.10;;
27313;SDS011;14800;48.174;9.798;2023-04-24T12:23:42;3.13;;;1.40;;
27313;SDS011;14800;48.174;9.798;2023-04-24T12:26:09;2.17;;;1.35;;
27313;SDS011;14800;48.174;9.798;2023-04-24T12:28:35;1.70;;;1.52;;
27313;SDS011;14800;48.174;9.798;2023-04-24T12:31:02;2.95;;;1.10;;
27313;SDS011;14800;48.174;9.798;2023-04-24T12:33:28;1.73;;;1.15;;
27313;SDS011;14800;48.174;9.798;2023-04-24T12:35:58;3.35;;;1.40;;
27313;SDS011;14800;48.174;9.798;2023-04-24T12:38:28;4.03;;;1.52;;
27313;SDS011;14800;48.174;9.798;2023-04-24T12:41:07;2.97;;;1.40;;
27313;SDS011;14800;48.174;9.798;2023-04-24T12:43:35;2.13;;;1.10;;
27313;SDS011;14800;48.174;9.798;2023-04-24T12:46:01;2.30;;;1.20;;
27313;SDS011;14800;48.174;9.798;2023-04-24T12:48:28;2.25;;;1.20;;
27313;SDS011;14800;48.174;9.798;2023-04-24T12:50:54;1.70;;;1.40;;
27313;SDS011;14800;48.174;9.798;2023-04-24T12:53:22;1.67;;;1.15;;
27313;SDS011;14800;48.174;9.798;2023-04-24T12:55:47;3.38;;;1.20;;
27313;SDS011;14800;48.174;9.798;2023-04-24T12:58:18;1.92;;;1.00;;
27313;SDS011;14800;48.174;9.798;2023-04-24T13:00:45;1.17;;;0.90;;
27313;SDS011;14800;48.174;9.798;2023-04-24T13:03:11;2.60;;;1.27;;
27313;SDS011;14800;48.174;9.798;2023-04-24T13:05:37;1.70;;;1.00;;
27313;SDS011;14800;48.174;9.798;2023-04-24T13:08:03;1.10;;;0.93;;
27313;SDS011;14800;48.174;9.798;2023-04-24T13:10:29;3.03;;;1.17;;
27313;SDS011;14800;48.174;9.798;2023-04-24T13:12:55;1.63;;;1.35;;
27313;SDS011;14800;48.174;9.798;2023-04-24T13:15:20;1.95;;;1.55;;
27313;SDS011;14800;48.174;9.798;2023-04-24T13:17:46;2.22;;;1.48;;
27313;SDS011;14800;48.174;9.798;2023-04-24T13:20:11;1.75;;;1.40;;
27313;SDS011;14800;48.174;9.798;2023-04-24T13:22:37;1.58;;;1.00;;
27313;SDS011;14800;48.174;9.798;2023-04-24T13:25:02;3.78;;;1.05;;
27313;SDS011;14800;48.174;9.798;2023-04-24T13:27:30;1.58;;;1.10;;
27313;SDS011;14800;48.174;9.798;2023-04-24T13:29:56;2.63;;;0.90;;
27313;SDS011;14800;48.174;9.798;2023-04-24T13:32:22;1.67;;;0.90;;
27313;SDS011;14800;48.174;9.798;2023-04-24T13:34:47;4.28;;;1.50;;
27313;SDS011;14800;48.174;9.798;2023-04-24T13:37:13;0.80;;;0.80;;
27313;SDS011;14800;48.174;9.798;2023-04-24T13:39:40;1.23;;;0.80;;
27313;SDS011;14800;48.174;9.798;2023-04-24T13:42:08;2.15;;;0.88;;
27313;SDS011;14800;48.174;9.798;2023-04-24T13:44:34;1.83;;;0.80;;
27313;SDS011;14800;48.174;9.798;2023-04-24T13:47:00;2.00;;;0.60;;
27313;SDS011;14800;48.174;9.798;2023-04-24T13:49:26;2.25;;;0.68;;
27313;SDS011;14800;48.174;9.798;2023-04-24T13:51:52;2.47;;;0.60;;
27313;SDS011;14800;48.174;9.798;2023-04-24T13:54:19;1.02;;;0.70;;
27313;SDS011;14800;48.174;9.798;2023-04-24T13:56:44;1.67;;;0.68;;
27313;SDS011;14800;48.174;9.798;2023-04-24T13:59:11;1.42;;;0.50;;
27313;SDS011;14800;48.174;9.798;2023-04-24T14:01:38;1.08;;;0.40;;
27313;SDS011;14800;48.174;9.798;2023-04-24T14:04:03;0.52;;;0.45;;
27313;SDS011;14800;48.174;9.798;2023-04-24T14:06:29;0.50;;;0.50;;
27313;SDS011;14800;48.174;9.798;2023-04-24T14:08:56;2.55;;;0.70;;
27313;SDS011;14800;48.174;9.798;2023-04-24T14:11:21;0.68;;;0.40;;
27313;SDS011;14800;48.174;9.798;2023-04-24T14:13:47;0.65;;;0.50;;
27313;SDS011;14800;48.174;9.798;2023-04-24T14:16:13;0.52;;;0.50;;
27313;SDS011;14800;48.174;9.798;2023-04-24T14:18:39;0.77;;;0.40;;
27313;SDS011;14800;48.174;9.798;2023-04-24T14:21:05;0.70;;;0.55;;
27313;SDS011;14800;48.174;9.798;2023-04-24T14:23:30;1.00;;;0.50;;
27313;SDS011;14800;48.174;9.798;2023-04-24T14:25:57;0.93;;;0.65;;
27313;SDS011;14800;48.174;9.798;2023-04-24T14:28:23;1.48;;;0.50;;
27313;SDS011;14800;48.174;9.798;2023-04-24T14:30:49;0.90;;;0.57;;
27313;SDS011;14800;48.174;9.798;2023-04-24T14:33:15;1.15;;;0.60;;
27313;SDS011;14800;48.174;9.798;2023-04-24T14:35:41;0.85;;;0.68;;
27313;SDS011;14800;48.174;9.798;2023-04-24T14:38:07;1.17;;;0.57;;
27313;SDS011;14800;48.174;9.798;2023-04-24T14:40:33;1.45;;;0.60;;
27313;SDS011;14800;48.174;9.798;2023-04-24T14:42:59;0.65;;;0.65;;
27313;SDS011;14800;48.174;9.798;2023-04-24T14:45:25;0.68;;;0.60;;
27313;SDS011;14800;48.174;9.798;2023-04-24T14:47:52;2.78;;;0.80;;
27313;SDS011;14800;48.174;9.798;2023-04-24T14:50:17;1.45;;;0.90;;
27313;SDS011;14800;48.174;9.798;2023-04-24T14:52:43;2.38;;;1.50;;
27313;SDS011;14800;48.174;9.798;2023-04-24T14:55:08;1.02;;;0.80;;
27313;SDS011;14800;48.174;9.798;2023-04-24T14:57:34;0.88;;;0.73;;
27313;SDS011;14800;48.174;9.798;2023-04-24T15:00:01;1.83;;;0.88;;